Time;durP1;ratioP1;P1;durP2;ratioP2;P2;SDS_P1;SDS_P2;PMS_P1;PMS_P2;Temp;Humidity;BMP_temperature;BMP_pressure;BME280_temperature;BME280_humidity;BME280_pressure;Samples;Min_cycle;Max_cycle;Signal;HPM_P1;HPM_P2
2023/09/15 00:00:20;;;;;;;10.37;4.93;;;;;17.00;97305.00;;;;5058345;28;20196;-66
2023/09/15 00:03:09;;;;;;;5.10;4.60;;;;;17.40;97313.00;;;;5050432;28;20197;-66
2023/09/15 00:05:59;;;;;;;7.43;5.17;;;;;17.20;97307.00;;;;5036164;28;20197;-66
2023/09/15 00:08:50;;;;;;;4.43;4.03;;;;;17.40;97303.00;;;;5049028;28;20700;-66
2023/09/15 00:11:40;;;;;;;4.37;3.93;;;;;17.50;97299.00;;;;5046464;28;20225;-66
2023/09/15 00:14:29;;;;;;;5.67;4.33;;;;;17.70;97302.00;;;;5035478;28;20198;-66
2023/09/15 00:17:18;;;;;;;5.43;4.80;;;;;17.70;97296.00;;;;5043840;28;20212;-66
2023/09/15 00:20:13;;;;;;;11.37;4.43;;;;;17.60;97297.00;;;;5048614;28;20200;-67
2023/09/15 00:23:02;;;;;;;6.03;4.07;;;;;17.40;97303.00;;;;5050237;28;20192;-66
2023/09/15 00:25:54;;;;;;;10.73;4.70;;;;;17.30;97298.00;;;;5049680;28;20208;-66
2023/09/15 00:28:43;;;;;;;5.50;4.30;;;;;17.60;97300.00;;;;5049454;28;20594;-66
2023/09/15 00:31:32;;;;;;;7.00;4.60;;;;;17.70;97296.00;;;;5053568;28;20233;-66
2023/09/15 00:34:21;;;;;;;6.53;5.00;;;;;17.60;97298.00;;;;5047607;28;20200;-66
2023/09/15 00:37:10;;;;;;;6.33;4.33;;;;;17.60;97294.00;;;;5047438;28;20567;-66
2023/09/15 00:39:59;;;;;;;3.53;3.23;;;;;17.40;97292.00;;;;5043170;28;20681;-66
2023/09/15 00:42:51;;;;;;;6.00;3.97;;;;;17.50;97301.00;;;;5046435;28;20212;-67
2023/09/15 00:45:40;;;;;;;5.40;4.07;;;;;17.50;97292.00;;;;5049410;28;20568;-66
2023/09/15 00:48:29;;;;;;;8.40;4.67;;;;;17.30;97288.00;;;;5049067;28;20647;-66
2023/09/15 00:51:21;;;;;;;6.30;4.27;;;;;17.60;97291.00;;;;5037165;28;20198;-66
2023/09/15 00:54:12;;;;;;;6.90;4.30;;;;;17.70;97288.00;;;;5042814;28;20208;-66
2023/09/15 00:57:01;;;;;;;13.17;3.97;;;;;17.80;97291.00;;;;5034031;28;20217;-66
2023/09/15 00:59:51;;;;;;;7.70;4.50;;;;;17.70;97291.00;;;;5048119;28;20212;-66
2023/09/15 01:02:42;;;;;;;4.57;4.17;;;;;17.70;97293.00;;;;5047760;28;20239;-66
2023/09/15 01:05:31;;;;;;;9.30;4.03;;;;;17.70;97292.00;;;;5053316;28;20258;-66
2023/09/15 01:08:20;;;;;;;8.13;4.37;;;;;17.70;97292.00;;;;5038557;28;20224;-66
2023/09/15 01:11:10;;;;;;;11.00;5.00;;;;;17.40;97287.00;;;;5053257;23;20255;-72
2023/09/15 01:13:59;;;;;;;7.87;4.47;;;;;17.40;97290.00;;;;5029936;28;20215;-70
2023/09/15 01:16:53;;;;;;;5.23;4.63;;;;;17.40;97292.00;;;;5031985;28;20581;-70
2023/09/15 01:19:54;;;;;;;5.47;3.83;;;;;17.30;97293.00;;;;5034925;28;20194;-71
2023/09/15 01:23:07;;;;;;;8.23;5.07;;;;;17.10;97290.00;;;;5031440;28;20806;-73
2023/09/15 01:26:12;;;;;;;4.83;4.30;;;;;17.10;97291.00;;;;5021451;28;20201;-70
2023/09/15 01:29:29;;;;;;;6.40;4.03;;;;;17.00;97293.00;;;;5030412;28;20201;-70
2023/09/15 01:32:20;;;;;;;4.33;3.90;;;;;17.00;97288.00;;;;5021470;28;20706;-70
2023/09/15 01:35:09;;;;;;;5.20;4.13;;;;;17.10;97289.00;;;;5028947;28;20683;-72
2023/09/15 01:37:59;;;;;;;6.30;4.83;;;;;17.10;97291.00;;;;5019339;28;20202;-70
2023/09/15 01:40:48;;;;;;;4.73;4.07;;;;;17.00;97290.00;;;;5024489;28;21036;-71
2023/09/15 01:43:37;;;;;;;6.10;5.23;;;;;16.80;97292.00;;;;5034960;28;20228;-71
2023/09/15 01:46:26;;;;;;;6.07;4.40;;;;;16.80;97297.00;;;;5029501;28;20212;-71
2023/09/15 01:49:17;;;;;;;7.67;4.37;;;;;16.60;97300.00;;;;5025093;28;20201;-71
2023/09/15 01:52:06;;;;;;;7.57;4.43;;;;;16.50;97294.00;;;;5025508;28;20604;-71
2023/09/15 01:54:56;;;;;;;8.23;4.97;;;;;16.20;97308.00;;;;5024494;28;20207;-70
2023/09/15 01:57:45;;;;;;;9.43;4.27;;;;;16.20;97299.00;;;;5026449;28;20208;-70
2023/09/15 02:00:35;;;;;;;5.33;4.47;;;;;16.40;97303.00;;;;5030358;28;20720;-71
2023/09/15 02:03:24;;;;;;;6.17;4.87;;;;;16.60;97306.00;;;;5027855;28;20198;-73
2023/09/15 02:06:16;;;;;;;7.20;5.77;;;;;16.80;97301.00;;;;5024461;28;20205;-73
2023/09/15 02:09:06;;;;;;;5.20;4.67;;;;;16.90;97289.00;;;;5022238;28;20252;-72
2023/09/15 02:11:55;;;;;;;10.10;5.30;;;;;16.80;97298.00;;;;5025186;28;20599;-72
2023/09/15 02:14:44;;;;;;;5.90;5.23;;;;;16.80;97301.00;;;;5033441;28;20220;-72
2023/09/15 02:17:33;;;;;;;8.13;5.53;;;;;16.80;97299.00;;;;5032626;28;20209;-72
2023/09/15 02:20:22;;;;;;;8.53;5.27;;;;;16.80;97303.00;;;;5031703;28;20766;-72
2023/09/15 02:23:13;;;;;;;10.73;5.17;;;;;16.80;97303.00;;;;5022977;28;20202;-72
2023/09/15 02:26:04;;;;;;;7.37;5.27;;;;;16.80;97299.00;;;;5025512;28;20232;-72
2023/09/15 02:28:53;;;;;;;6.20;4.70;;;;;16.90;97297.00;;;;5020828;28;20213;-72
2023/09/15 02:31:42;;;;;;;10.33;5.63;;;;;17.00;97296.00;;;;5032055;28;20220;-72
2023/09/15 02:34:31;;;;;;;5.40;4.60;;;;;16.90;97305.00;;;;5031267;28;20212;-72
2023/09/15 02:37:20;;;;;;;7.67;4.57;;;;;17.00;97292.00;;;;5029311;28;20307;-71
2023/09/15 02:40:14;;;;;;;5.97;4.63;;;;;17.00;97302.00;;;;5029125;28;20221;-71
2023/09/15 02:43:03;;;;;;;9.37;6.07;;;;;17.00;97296.00;;;;5029067;28;20592;-72
2023/09/15 02:45:52;;;;;;;6.07;4.83;;;;;17.00;97293.00;;;;5028586;28;20213;-72
2023/09/15 02:48:42;;;;;;;6.23;5.63;;;;;17.30;97295.00;;;;5033750;28;20201;-71
2023/09/15 02:51:31;;;;;;;6.57;5.43;;;;;17.20;97303.00;;;;5025140;28;20221;-72
2023/09/15 02:54:20;;;;;;;5.57;5.07;;;;;17.10;97293.00;;;;5020578;28;20217;-71
2023/09/15 02:57:10;;;;;;;6.87;5.50;;;;;17.20;97294.00;;;;5021630;28;20246;-72
2023/09/15 02:59:59;;;;;;;10.43;5.13;;;;;17.20;97301.00;;;;5020608;28;20236;-71
2023/09/15 03:02:48;;;;;;;9.60;5.13;;;;;17.00;97297.00;;;;5027808;28;20202;-72
2023/09/15 03:05:38;;;;;;;6.47;5.03;;;;;17.10;97294.00;;;;5037649;28;20201;-72
2023/09/15 03:08:28;;;;;;;7.63;5.50;;;;;17.20;97297.00;;;;5028699;28;20195;-72
2023/09/15 03:11:17;;;;;;;8.87;6.83;;;;;17.30;97300.00;;;;5025366;28;20236;-72
2023/09/15 03:14:09;;;;;;;8.83;6.33;;;;;17.20;97295.00;;;;5029218;28;20710;-71
2023/09/15 03:16:58;;;;;;;8.53;5.93;;;;;17.30;97291.00;;;;5026861;28;20204;-71
2023/09/15 03:19:47;;;;;;;7.27;6.53;;;;;17.30;97283.00;;;;5034510;28;20243;-72
2023/09/15 03:22:36;;;;;;;8.57;6.57;;;;;17.20;97292.00;;;;5031084;28;20210;-71
2023/09/15 03:25:25;;;;;;;8.03;6.23;;;;;17.30;97287.00;;;;5024995;28;20202;-71
2023/09/15 03:28:14;;;;;;;8.10;5.30;;;;;17.30;97285.00;;;;5030935;28;20594;-71
2023/09/15 03:31:05;;;;;;;7.53;5.90;;;;;17.30;97277.00;;;;5033958;28;20221;-71
2023/09/15 03:33:54;;;;;;;11.47;5.73;;;;;17.20;97278.00;;;;5026282;28;20620;-71
2023/09/15 03:36:43;;;;;;;6.67;5.60;;;;;17.20;97272.00;;;;5038878;28;20205;-70
2023/09/15 03:39:32;;;;;;;9.77;6.03;;;;;17.50;97275.00;;;;5035525;28;20204;-71
2023/09/15 03:42:21;;;;;;;10.37;5.90;;;;;17.40;97270.00;;;;5024885;28;20694;-70
2023/09/15 03:45:11;;;;;;;6.20;5.30;;;;;17.20;97277.00;;;;5021290;28;20597;-71
2023/09/15 03:48:02;;;;;;;6.87;6.00;;;;;16.90;97267.00;;;;5026996;28;20225;-72
2023/09/15 03:50:55;;;;;;;10.77;6.10;;;;;16.90;97267.00;;;;5029810;28;20228;-71
2023/09/15 03:53:44;;;;;;;8.13;6.07;;;;;16.80;97271.00;;;;5031897;28;20235;-73
2023/09/15 03:56:34;;;;;;;13.40;7.27;;;;;17.10;97273.00;;;;5025915;28;20206;-71
2023/09/15 03:59:23;;;;;;;7.47;6.00;;;;;17.10;97284.00;;;;5036074;28;20585;-71
2023/09/15 04:02:12;;;;;;;7.57;6.33;;;;;17.00;97273.00;;;;5027533;28;20201;-71
2023/09/15 04:05:04;;;;;;;8.50;5.33;;;;;16.90;97279.00;;;;5027717;28;20205;-71
2023/09/15 04:07:53;;;;;;;7.57;5.60;;;;;17.10;97282.00;;;;5033092;28;20212;-70
2023/09/15 04:10:42;;;;;;;11.73;5.77;;;;;17.10;97291.00;;;;5032397;28;20251;-72
2023/09/15 04:13:31;;;;;;;6.37;5.60;;;;;17.10;97288.00;;;;5030995;28;20229;-71
2023/09/15 04:16:20;;;;;;;8.05;6.07;;;;;17.10;97287.00;;;;5028055;28;20403;-71
2023/09/15 04:19:09;;;;;;;6.43;5.80;;;;;17.40;97283.00;;;;5028737;28;20399;-71
2023/09/15 04:22:00;;;;;;;6.00;5.40;;;;;17.50;97287.00;;;;5031371;28;20201;-72
2023/09/15 04:24:49;;;;;;;5.43;4.93;;;;;17.60;97291.00;;;;5024334;28;20205;-71
2023/09/15 04:27:38;;;;;;;9.07;4.07;;;;;17.80;97296.00;;;;5032955;28;20209;-71
2023/09/15 04:30:27;;;;;;;6.03;5.43;;;;;17.60;97291.00;;;;5025209;28;20305;-72
2023/09/15 04:33:16;;;;;;;13.73;5.00;;;;;17.70;97295.00;;;;5028201;28;20308;-72
2023/09/15 04:36:05;;;;;;;7.03;5.23;;;;;17.70;97293.00;;;;5026528;28;20205;-71
2023/09/15 04:38:56;;;;;;;12.27;5.00;;;;;17.60;97296.00;;;;5032045;28;20215;-72
2023/09/15 04:41:45;;;;;;;7.03;4.57;;;;;17.60;97297.00;;;;5033700;28;20720;-71
2023/09/15 04:44:34;;;;;;;9.47;4.83;;;;;17.60;97298.00;;;;5031840;28;20197;-71
2023/09/15 04:47:31;;;;;;;9.07;4.27;;;;;17.60;97298.00;;;;5034203;28;20205;-72
2023/09/15 04:50:20;;;;;;;4.43;3.93;;;;;17.80;97293.00;;;;5019731;28;20226;-72
2023/09/15 04:53:09;;;;;;;7.70;4.77;;;;;17.70;97294.00;;;;5027020;28;20732;-72
2023/09/15 04:56:03;;;;;;;5.60;5.10;;;;;17.70;97302.00;;;;5024212;28;20217;-71
2023/09/15 04:58:52;;;;;;;5.97;4.33;;;;;17.60;97303.00;;;;5025816;28;20197;-71
2023/09/15 05:01:41;;;;;;;4.90;4.03;;;;;17.60;97305.00;;;;5021146;28;20226;-73
2023/09/15 05:04:30;;;;;;;5.40;4.13;;;;;17.50;97300.00;;;;5030746;28;20713;-71
2023/09/15 05:07:19;;;;;;;9.30;4.47;;;;;17.60;97301.00;;;;5026716;28;20701;-72
2023/09/15 05:10:08;;;;;;;6.45;5.40;;;;;17.50;97295.00;;;;5024521;28;20410;-72
2023/09/15 05:13:00;;;;;;;6.03;4.77;;;;;17.70;97302.00;;;;5030910;28;20701;-71
2023/09/15 05:15:49;;;;;;;5.47;3.90;;;;;17.40;97294.00;;;;5033736;28;20196;-72
2023/09/15 05:18:38;;;;;;;7.63;4.23;;;;;17.20;97297.00;;;;5028300;28;20203;-71
2023/09/15 05:21:27;;;;;;;5.03;4.37;;;;;17.40;97292.00;;;;5026123;28;20232;-71
2023/09/15 05:24:16;;;;;;;5.33;4.10;;;;;17.60;97297.00;;;;5026102;28;20198;-70
2023/09/15 05:27:07;;;;;;;9.13;5.17;;;;;17.50;97298.00;;;;5027727;28;20585;-71
2023/09/15 05:29:58;;;;;;;5.83;4.10;;;;;17.40;97299.00;;;;5030003;28;20229;-70
2023/09/15 05:32:47;;;;;;;4.83;4.20;;;;;17.50;97301.00;;;;5027354;28;20205;-71
2023/09/15 05:35:36;;;;;;;8.73;4.50;;;;;17.40;97296.00;;;;5033139;28;20597;-72
2023/09/15 05:38:25;;;;;;;4.83;4.37;;;;;17.70;97301.00;;;;5024104;28;20216;-71
2023/09/15 05:41:14;;;;;;;4.23;3.83;;;;;17.90;97303.00;;;;5024653;28;20225;-71
2023/09/15 05:44:03;;;;;;;5.63;4.20;;;;;17.90;97298.00;;;;5027554;28;20220;-72
2023/09/15 05:46:54;;;;;;;7.20;3.60;;;;;18.10;97306.00;;;;5030433;28;20209;-71
2023/09/15 05:49:43;;;;;;;6.20;5.60;;;;;18.40;97310.00;;;;5031909;28;20749;-72
2023/09/15 05:52:32;;;;;;;4.83;4.30;;;;;18.60;97305.00;;;;5029971;28;20224;-71
2023/09/15 05:55:21;;;;;;;6.43;4.40;;;;;18.40;97313.00;;;;5031465;28;20789;-71
2023/09/15 05:58:10;;;;;;;4.43;3.67;;;;;18.30;97316.00;;;;5026025;28;20201;-70
2023/09/15 06:00:59;;;;;;;9.47;4.20;;;;;18.30;97323.00;;;;5028136;28;20705;-71
2023/09/15 06:03:50;;;;;;;5.57;4.30;;;;;18.20;97319.00;;;;5034512;28;20201;-71
2023/09/15 06:06:39;;;;;;;5.17;4.67;;;;;18.30;97316.00;;;;5030299;28;20205;-71
2023/09/15 06:09:28;;;;;;;5.03;3.97;;;;;18.40;97318.00;;;;5020208;28;20194;-71
2023/09/15 06:12:17;;;;;;;4.53;3.43;;;;;18.50;97312.00;;;;5025392;28;20559;-70
2023/09/15 06:15:06;;;;;;;4.00;3.40;;;;;18.60;97317.00;;;;5030828;28;20725;-71
2023/09/15 06:17:55;;;;;;;4.57;4.13;;;;;18.90;97315.00;;;;5031410;28;20216;-70
2023/09/15 06:20:46;;;;;;;4.37;3.97;;;;;18.90;97310.00;;;;5034759;28;20233;-71
2023/09/15 06:23:35;;;;;;;4.47;4.07;;;;;19.10;97309.00;;;;5033861;28;20201;-70
2023/09/15 06:26:24;;;;;;;4.90;4.43;;;;;19.00;97307.00;;;;5029361;28;20197;-71
2023/09/15 06:29:15;;;;;;;7.70;4.30;;;;;18.90;97306.00;;;;5022051;28;20209;-71
2023/09/15 06:32:04;;;;;;;4.90;4.00;;;;;19.10;97294.00;;;;5022184;28;20695;-71
2023/09/15 06:34:53;;;;;;;9.63;5.10;;;;;19.30;97298.00;;;;5020409;28;20232;-71
2023/09/15 06:37:44;;;;;;;9.20;4.70;;;;;19.30;97292.00;;;;5033905;28;20713;-71
2023/09/15 06:40:33;;;;;;;11.30;6.13;;;;;19.20;97292.00;;;;5029367;28;20694;-70
2023/09/15 06:43:22;;;;;;;5.73;4.43;;;;;19.40;97295.00;;;;5027530;28;20228;-71
2023/09/15 06:46:11;;;;;;;7.17;5.67;;;;;19.40;97299.00;;;;5021660;28;20206;-72
2023/09/15 06:49:00;;;;;;;7.47;5.77;;;;;19.30;97299.00;;;;5026589;28;20224;-72
2023/09/15 06:51:50;;;;;;;7.10;5.90;;;;;19.30;97293.00;;;;5023278;28;20216;-70
2023/09/15 06:54:40;;;;;;;7.07;6.37;;;;;19.40;97300.00;;;;5033050;28;20601;-71
2023/09/15 06:57:29;;;;;;;7.50;5.57;;;;;19.50;97298.00;;;;5031717;28;20201;-70
2023/09/15 07:00:19;;;;;;;10.30;6.30;;;;;19.50;97299.00;;;;5029803;28;20225;-72
2023/09/15 07:03:08;;;;;;;9.47;6.63;;;;;19.50;97298.00;;;;5019122;28;20197;-70
2023/09/15 07:05:57;;;;;;;11.63;7.23;;;;;19.80;97288.00;;;;5020872;28;20209;-71
2023/09/15 07:08:48;;;;;;;7.23;4.93;;;;;19.90;97301.00;;;;5032063;28;20205;-70
2023/09/15 07:11:38;;;;;;;5.97;5.13;;;;;20.00;97299.00;;;;5052934;22;20232;-65
2023/09/15 07:14:27;;;;;;;6.50;5.90;;;;;20.10;97302.00;;;;5034555;28;20201;-65
2023/09/15 07:17:17;;;;;;;9.07;6.43;;;;;20.40;97304.00;;;;5030886;28;20675;-65
2023/09/15 07:20:07;;;;;;;7.93;5.77;;;;;20.30;97303.00;;;;5024461;28;20230;-65
2023/09/15 07:22:56;;;;;;;9.10;5.73;;;;;20.40;97310.00;;;;5026122;28;20228;-65
2023/09/15 07:25:47;;;;;;;6.53;4.87;;;;;20.70;97309.00;;;;5030523;28;20196;-65
2023/09/15 07:28:37;;;;;;;9.37;6.73;;;;;20.90;97316.00;;;;5031096;28;20197;-65
2023/09/15 07:31:27;;;;;;;6.50;5.57;;;;;20.60;97308.00;;;;5030472;28;20216;-65
2023/09/15 07:34:16;;;;;;;13.30;5.90;;;;;20.50;97313.00;;;;5026137;28;20194;-65
2023/09/15 07:37:06;;;;;;;7.67;6.33;;;;;20.50;97307.00;;;;5032976;28;20316;-65
2023/09/15 07:39:55;;;;;;;8.07;6.27;;;;;20.30;97318.00;;;;5029695;28;20700;-64
2023/09/15 07:42:44;;;;;;;7.07;6.07;;;;;20.60;97310.00;;;;5035066;28;20811;-65
2023/09/15 07:45:34;;;;;;;8.93;5.03;;;;;20.80;97315.00;;;;5032465;28;20571;-65
2023/09/15 07:48:23;;;;;;;7.00;6.00;;;;;20.90;97313.00;;;;5028217;28;20697;-65
2023/09/15 07:51:13;;;;;;;7.23;5.53;;;;;20.80;97310.00;;;;5030551;28;20217;-65
2023/09/15 07:54:02;;;;;;;5.87;4.87;;;;;20.90;97318.00;;;;5031567;28;20204;-65
2023/09/15 07:56:51;;;;;;;11.10;5.53;;;;;21.00;97319.00;;;;5028152;28;20600;-65
2023/09/15 07:59:41;;;;;;;6.73;5.63;;;;;20.90;97319.00;;;;5034958;28;20201;-65
2023/09/15 08:02:31;;;;;;;10.33;7.00;;;;;21.00;97320.00;;;;5031092;28;20213;-65
2023/09/15 08:05:20;;;;;;;6.73;5.13;;;;;21.10;97327.00;;;;5031044;28;20198;-65
2023/09/15 08:08:09;;;;;;;6.07;5.47;;;;;21.00;97318.00;;;;5033268;28;20217;-65
2023/09/15 08:10:58;;;;;;;7.93;6.93;;;;;21.30;97318.00;;;;5029233;28;20997;-65
2023/09/15 08:13:48;;;;;;;14.13;5.30;;;;;21.40;97315.00;;;;5035613;28;20197;-65
2023/09/15 08:16:37;;;;;;;8.77;4.80;;;;;21.30;97316.00;;;;5037976;28;20231;-65
2023/09/15 08:19:27;;;;;;;6.83;5.23;;;;;21.30;97315.00;;;;5035296;28;20205;-64
2023/09/15 08:22:16;;;;;;;6.33;4.67;;;;;21.60;97310.00;;;;5029645;28;20204;-64
2023/09/15 08:25:06;;;;;;;6.47;5.67;;;;;22.00;97309.00;;;;5032660;28;20216;-65
2023/09/15 08:27:55;;;;;;;6.40;4.43;;;;;22.20;97310.00;;;;5032223;28;20686;-65
2023/09/15 08:30:46;;;;;;;9.70;4.77;;;;;22.50;97314.00;;;;5036227;28;20615;-65
2023/09/15 08:33:35;;;;;;;5.70;4.40;;;;;22.40;97307.00;;;;5031686;28;20581;-66
2023/09/15 08:36:27;;;;;;;5.37;4.13;;;;;22.60;97306.00;;;;5030748;28;20237;-65
2023/09/15 08:39:16;;;;;;;7.17;4.77;;;;;22.50;97299.00;;;;5033099;28;20706;-64
2023/09/15 08:42:08;;;;;;;9.47;4.30;;;;;23.10;97292.00;;;;5033333;28;20597;-65
2023/09/15 08:44:58;;;;;;;4.80;4.37;;;;;22.90;97309.00;;;;5033513;28;20591;-65
2023/09/15 08:47:49;;;;;;;6.30;4.27;;;;;23.10;97314.00;;;;5039035;28;20204;-66
2023/09/15 08:50:39;;;;;;;5.70;4.97;;;;;22.80;97304.00;;;;5035114;28;20229;-65
2023/09/15 08:53:29;;;;;;;6.23;4.47;;;;;22.50;97304.00;;;;5028858;28;20205;-65
2023/09/15 08:56:18;;;;;;;6.90;5.27;;;;;22.10;97297.00;;;;5035499;28;20221;-65
2023/09/15 08:59:08;;;;;;;4.33;3.93;;;;;22.50;97301.00;;;;5029580;28;20208;-66
2023/09/15 09:01:58;;;;;;;8.37;5.00;;;;;22.40;97301.00;;;;5031900;28;20255;-66
2023/09/15 09:04:48;;;;;;;6.33;4.50;;;;;22.50;97303.00;;;;5035007;28;20206;-66
2023/09/15 09:07:38;;;;;;;6.77;4.73;;;;;22.50;97299.00;;;;5032682;28;20221;-66
2023/09/15 09:10:29;;;;;;;5.23;4.43;;;;;22.40;97294.00;;;;5030989;28;20240;-65
2023/09/15 09:13:22;;;;;;;5.90;5.30;;;;;22.80;97284.00;;;;5029965;28;20212;-66
2023/09/15 09:16:15;;;;;;;5.67;4.27;;;;;23.50;97273.00;;;;5029398;28;20217;-65
2023/09/15 09:19:06;;;;;;;5.73;4.30;;;;;23.40;97277.00;;;;5035738;28;20212;-65
2023/09/15 09:22:02;;;;;;;5.93;5.07;;;;;23.60;97285.00;;;;5029770;28;20324;-65
2023/09/15 09:24:55;;;;;;;4.87;3.97;;;;;23.70;97286.00;;;;5029697;28;20204;-65
2023/09/15 09:27:47;;;;;;;4.83;4.33;;;;;23.70;97281.00;;;;5031628;28;20247;-65
2023/09/15 09:30:36;;;;;;;4.53;4.07;;;;;24.20;97298.00;;;;5033718;28;20230;-65
2023/09/15 09:33:25;;;;;;;7.10;4.93;;;;;25.00;97282.00;;;;5031989;28;20209;-64
2023/09/15 09:36:16;;;;;;;6.10;5.10;;;;;25.80;97280.00;;;;5030838;28;20228;-65
2023/09/15 09:39:06;;;;;;;4.63;4.23;;;;;25.00;97275.00;;;;5034590;28;20212;-65
2023/09/15 09:41:55;;;;;;;5.50;4.13;;;;;25.10;97271.00;;;;5024342;28;20621;-65
2023/09/15 09:44:46;;;;;;;5.30;4.80;;;;;26.20;97280.00;;;;5035633;28;20708;-65
2023/09/15 09:47:35;;;;;;;4.23;3.83;;;;;26.80;97289.00;;;;5031800;28;20201;-65
2023/09/15 09:50:26;;;;;;;5.63;3.83;;;;;26.20;97294.00;;;;5023441;28;20213;-65
2023/09/15 09:53:15;;;;;;;8.17;4.13;;;;;26.10;97294.00;;;;5028231;28;20209;-66
2023/09/15 09:56:05;;;;;;;4.87;3.30;;;;;25.70;97286.00;;;;5029828;28;20705;-65
2023/09/15 09:58:54;;;;;;;5.43;3.17;;;;;25.80;97294.00;;;;5029261;28;20569;-66
2023/09/15 10:01:45;;;;;;;3.73;3.40;;;;;25.70;97288.00;;;;5031096;28;20570;-65
2023/09/15 10:04:34;;;;;;;4.63;3.57;;;;;24.60;97294.00;;;;5033836;28;20197;-66
2023/09/15 10:07:23;;;;;;;8.03;4.03;;;;;25.00;97291.00;;;;5032117;28;20881;-66
2023/09/15 10:10:13;;;;;;;3.63;3.23;;;;;25.60;97283.00;;;;5022022;28;20245;-66
2023/09/15 10:13:02;;;;;;;3.90;3.50;;;;;24.80;97271.00;;;;5022403;28;20201;-65
2023/09/15 10:15:53;;;;;;;4.20;3.77;;;;;24.50;97270.00;;;;5018495;28;20265;-65
2023/09/15 10:18:45;;;;;;;4.40;3.30;;;;;25.30;97275.00;;;;5021209;28;20219;-65
2023/09/15 10:21:35;;;;;;;6.00;3.60;;;;;25.50;97275.00;;;;5020332;28;20232;-65
2023/09/15 10:24:26;;;;;;;4.33;3.20;;;;;25.40;97267.00;;;;5022534;28;20787;-65
2023/09/15 10:27:17;;;;;;;5.07;3.60;;;;;25.70;97271.00;;;;5022142;28;20226;-66
2023/09/15 10:30:08;;;;;;;3.67;3.37;;;;;25.50;97268.00;;;;5020747;28;20225;-66
2023/09/15 10:32:59;;;;;;;4.97;3.80;;;;;26.30;97224.00;;;;5021203;28;20209;-66
2023/09/15 10:35:50;;;;;;;3.77;3.37;;;;;25.90;97257.00;;;;5020420;28;20235;-65
2023/09/15 10:38:40;;;;;;;3.67;3.37;;;;;25.80;97255.00;;;;5020467;28;20206;-66
2023/09/15 10:41:30;;;;;;;7.00;4.33;;;;;25.70;97255.00;;;;5022275;28;20221;-65
2023/09/15 10:44:30;;;;;;;6.53;4.07;;;;;26.00;97246.00;;;;5022629;28;20218;-66
2023/09/15 10:47:20;;;;;;;6.37;3.37;;;;;26.00;97209.00;;;;5020683;28;20202;-66
2023/09/15 10:50:10;;;;;;;6.57;4.07;;;;;26.90;97210.00;;;;5021134;28;20589;-66
2023/09/15 10:53:09;;;;;;;4.20;3.37;;;;;27.30;97225.00;;;;5021330;28;20208;-66
2023/09/15 10:56:00;;;;;;;3.80;3.50;;;;;26.90;97197.00;;;;5021498;28;20242;-65
2023/09/15 10:58:50;;;;;;;3.33;3.03;;;;;28.00;97202.00;;;;5019656;28;20876;-66
2023/09/15 11:01:43;;;;;;;4.27;3.33;;;;;28.40;97223.00;;;;5019427;28;20235;-66
2023/09/15 11:04:32;;;;;;;3.30;2.90;;;;;27.60;97234.00;;;;5016178;28;20202;-66
2023/09/15 11:07:22;;;;;;;4.13;3.27;;;;;27.60;97221.00;;;;5019875;28;20223;-65
2023/09/15 11:10:12;;;;;;;4.10;3.70;;;;;26.60;97237.00;;;;5023596;28;20241;-66
2023/09/15 11:13:03;;;;;;;4.33;3.00;;;;;27.20;97226.00;;;;5030465;28;20682;-66
2023/09/15 11:15:52;;;;;;;4.17;3.43;;;;;27.00;97194.00;;;;5029381;28;20555;-66
2023/09/15 11:18:42;;;;;;;5.73;3.30;;;;;26.10;97238.00;;;;5030072;28;20198;-66
2023/09/15 11:21:31;;;;;;;4.80;3.20;;;;;26.60;97222.00;;;;5031631;28;20222;-65
2023/09/15 11:24:20;;;;;;;3.33;3.13;;;;;26.40;97222.00;;;;5037599;28;20261;-65
2023/09/15 11:27:15;;;;;;;5.83;2.97;;;;;25.20;97221.00;;;;5031712;28;20196;-66
2023/09/15 11:30:05;;;;;;;3.77;3.37;;;;;26.10;97216.00;;;;5034359;28;20215;-65
2023/09/15 11:32:55;;;;;;;3.70;3.03;;;;;27.50;97227.00;;;;5035250;28;20199;-66
2023/09/15 11:35:47;;;;;;;3.77;3.07;;;;;27.00;97175.00;;;;5032081;28;20219;-66
2023/09/15 11:38:36;;;;;;;4.63;3.17;;;;;28.20;97226.00;;;;5033022;28;20222;-66
2023/09/15 11:41:32;;;;;;;7.13;4.07;;;;;28.60;97219.00;;;;5030945;28;20241;-66
2023/09/15 11:44:24;;;;;;;5.03;3.37;;;;;29.70;97176.00;;;;5032095;28;20583;-66
2023/09/15 11:47:13;;;;;;;3.40;3.10;;;;;29.90;97174.00;;;;5029902;28;20195;-66
2023/09/15 11:50:04;;;;;;;4.07;3.67;;;;;29.10;97158.00;;;;5032136;28;20206;-66
2023/09/15 11:52:54;;;;;;;3.53;3.23;;;;;30.70;97161.00;;;;5030668;28;20217;-67
2023/09/15 11:55:43;;;;;;;3.63;3.13;;;;;29.90;97218.00;;;;5030830;28;20196;-67
2023/09/15 11:58:33;;;;;;;4.40;3.50;;;;;29.10;97200.00;;;;5033957;28;20232;-66
2023/09/15 12:01:24;;;;;;;4.53;3.27;;;;;28.90;97212.00;;;;5026943;28;20220;-67
2023/09/15 12:04:13;;;;;;;4.93;3.00;;;;;28.10;97200.00;;;;5034316;28;20208;-66
2023/09/15 12:07:03;;;;;;;3.60;3.30;;;;;26.80;97193.00;;;;5031676;28;20201;-66
2023/09/15 12:09:54;;;;;;;3.80;3.40;;;;;26.20;97188.00;;;;5032495;28;20215;-66
2023/09/15 12:12:44;;;;;;;5.13;3.53;;;;;25.60;97177.00;;;;5033556;28;20237;-66
2023/09/15 12:15:34;;;;;;;4.07;3.67;;;;;25.90;97151.00;;;;5034461;28;20204;-67
2023/09/15 12:18:27;;;;;;;4.93;4.47;;;;;25.90;97139.00;;;;5032655;28;20220;-67
2023/09/15 12:21:24;;;;;;;4.57;2.90;;;;;27.40;97147.00;;;;5033965;28;20230;-67
2023/09/15 12:24:14;;;;;;;3.90;2.70;;;;;28.40;97176.00;;;;5020866;28;20206;-67
2023/09/15 12:27:05;;;;;;;3.43;3.07;;;;;28.40;97183.00;;;;5022263;28;20222;-67
2023/09/15 12:29:54;;;;;;;3.37;3.07;;;;;28.10;97176.00;;;;5022433;28;20811;-66
2023/09/15 12:32:47;;;;;;;4.50;3.20;;;;;27.80;97181.00;;;;5023948;28;20261;-66
2023/09/15 12:35:40;;;;;;;3.40;2.70;;;;;26.90;97184.00;;;;5020878;28;20257;-66
2023/09/15 12:38:29;;;;;;;4.10;2.93;;;;;26.80;97175.00;;;;5023697;28;20233;-66
2023/09/15 12:41:18;;;;;;;3.87;2.80;;;;;26.80;97174.00;;;;5021041;28;20235;-66
2023/09/15 12:44:07;;;;;;;3.27;2.83;;;;;26.90;97179.00;;;;5023515;28;20207;-66
2023/09/15 12:46:57;;;;;;;7.13;3.20;;;;;27.00;97170.00;;;;5022399;28;20202;-66
2023/09/15 12:49:47;;;;;;;3.10;2.90;;;;;27.00;97167.00;;;;5023575;28;20282;-66
2023/09/15 12:52:37;;;;;;;3.40;2.87;;;;;27.20;97164.00;;;;5023370;28;20227;-66
2023/09/15 12:55:26;;;;;;;5.60;2.70;;;;;27.50;97165.00;;;;5023838;28;20207;-66
2023/09/15 12:58:18;;;;;;;4.17;3.23;;;;;27.40;97162.00;;;;5022548;28;20227;-66
2023/09/15 13:01:07;;;;;;;3.47;3.00;;;;;27.30;97155.00;;;;5023199;28;20692;-66
2023/09/15 13:03:56;;;;;;;3.00;2.70;;;;;27.20;97158.00;;;;5023932;28;20205;-66
2023/09/15 13:06:45;;;;;;;4.17;2.70;;;;;27.40;97144.00;;;;5023235;28;20219;-66
2023/09/15 13:09:35;;;;;;;3.20;2.90;;;;;28.70;97082.00;;;;5023396;28;20196;-66
2023/09/15 13:12:24;;;;;;;4.40;3.43;;;;;29.70;97084.00;;;;5023034;28;20209;-69
2023/09/15 13:15:14;;;;;;;3.37;3.07;;;;;29.10;97095.00;;;;5022543;28;20204;-69
2023/09/15 13:18:03;;;;;;;4.73;2.80;;;;;30.20;97092.00;;;;5023071;28;20217;-69
2023/09/15 13:20:52;;;;;;;2.90;2.70;;;;;31.00;97084.00;;;;5023035;28;20228;-69
2023/09/15 13:23:41;;;;;;;4.70;2.47;;;;;31.20;97129.00;;;;5024461;28;20209;-69
2023/09/15 13:26:32;;;;;;;3.70;3.40;;;;;30.60;97091.00;;;;5021692;28;20203;-69
2023/09/15 13:29:21;;;;;;;4.88;3.00;;;;;31.50;97133.00;;;;5023228;28;20212;-69
2023/09/15 13:32:10;;;;;;;4.00;2.63;;;;;30.90;97131.00;;;;5020506;28;20723;-69
2023/09/15 13:34:59;;;;;;;2.72;2.45;;;;;30.60;97136.00;;;;5022138;28;20634;-69
2023/09/15 13:37:48;;;;;;;3.05;2.75;;;;;30.10;97142.00;;;;5022177;28;20600;-69
2023/09/15 13:40:38;;;;;;;3.78;2.35;;;;;29.50;97149.00;;;;5022792;28;20812;-69
2023/09/15 13:43:29;;;;;;;3.15;2.85;;;;;29.30;97147.00;;;;5023424;28;20204;-68
2023/09/15 13:46:18;;;;;;;2.72;2.47;;;;;29.40;97147.00;;;;5021550;28;20197;-70
2023/09/15 13:49:07;;;;;;;4.35;2.60;;;;;29.30;97145.00;;;;5022989;28;20240;-68
2023/09/15 13:51:56;;;;;;;2.40;2.20;;;;;29.70;97118.00;;;;5022449;28;20221;-69
2023/09/15 13:54:46;;;;;;;3.25;2.60;;;;;29.20;97155.00;;;;5022049;28;20200;-68
2023/09/15 13:57:36;;;;;;;3.35;2.85;;;;;29.40;97162.00;;;;5021689;28;20686;-68
2023/09/15 14:00:27;;;;;;;3.30;3.00;;;;;29.10;97149.00;;;;5022883;28;20233;-69
2023/09/15 14:03:16;;;;;;;2.87;2.50;;;;;29.30;97133.00;;;;5021403;28;20262;-69
2023/09/15 14:06:05;;;;;;;3.38;3.08;;;;;29.60;97148.00;;;;5021768;28;20575;-69
2023/09/15 14:08:54;;;;;;;4.13;2.80;;;;;29.00;97145.00;;;;5021457;28;20231;-68